sensor_id;sensor_type;location;lat;lon;timestamp;P1;durP1;ratioP1;P2;durP2;ratioP2
76115;SDS011;64847;45.778;12.802;2023-04-15T00:02:14;2.10;;;2.00;;
76115;SDS011;64847;45.778;12.802;2023-04-15T00:04:45;1.73;;;1.60;;
76115;SDS011;64847;45.778;12.802;2023-04-15T00:07:11;1.80;;;1.70;;
76115;SDS011;64847;45.778;12.802;2023-04-15T00:09:37;1.87;;;1.77;;
76115;SDS011;64847;45.778;12.802;2023-04-15T00:12:02;1.67;;;1.67;;
76115;SDS011;64847;45.778;12.802;2023-04-15T00:14:28;2.23;;;1.87;;
76115;SDS011;64847;45.778;12.802;2023-04-15T00:16:54;2.00;;;1.90;;
76115;SDS011;64847;45.778;12.802;2023-04-15T00:19:21;1.60;;;1.60;;
76115;SDS011;64847;45.778;12.802;2023-04-15T00:21:48;3.43;;;1.90;;
76115;SDS011;64847;45.778;12.802;2023-04-15T00:24:13;2.50;;;2.30;;
76115;SDS011;64847;45.778;12.802;2023-04-15T00:26:38;2.00;;;1.90;;
76115;SDS011;64847;45.778;12.802;2023-04-15T00:29:04;2.17;;;2.07;;
76115;SDS011;64847;45.778;12.802;2023-04-15T00:31:30;2.40;;;2.30;;
76115;SDS011;64847;45.778;12.802;2023-04-15T00:33:55;2.20;;;2.10;;
76115;SDS011;64847;45.778;12.802;2023-04-15T00:36:21;2.53;;;2.43;;
76115;SDS011;64847;45.778;12.802;2023-04-15T00:38:47;2.50;;;2.40;;
76115;SDS011;64847;45.778;12.802;2023-04-15T00:41:13;2.43;;;2.33;;
76115;SDS011;64847;45.778;12.802;2023-04-15T00:43:38;3.03;;;2.87;;
76115;SDS011;64847;45.778;12.802;2023-04-15T00:46:04;2.53;;;2.43;;
76115;SDS011;64847;45.778;12.802;2023-04-15T00:48:30;2.80;;;2.60;;
76115;SDS011;64847;45.778;12.802;2023-04-15T00:50:56;2.93;;;2.83;;
76115;SDS011;64847;45.778;12.802;2023-04-15T00:53:21;3.17;;;2.97;;
76115;SDS011;64847;45.778;12.802;2023-04-15T00:55:47;3.20;;;3.00;;
76115;SDS011;64847;45.778;12.802;2023-04-15T00:58:12;2.97;;;2.83;;
76115;SDS011;64847;45.778;12.802;2023-04-15T01:00:38;2.87;;;2.67;;
76115;SDS011;64847;45.778;12.802;2023-04-15T01:03:04;3.20;;;3.07;;
76115;SDS011;64847;45.778;12.802;2023-04-15T01:05:31;3.13;;;2.93;;
76115;SDS011;64847;45.778;12.802;2023-04-15T01:07:57;3.80;;;3.50;;
76115;SDS011;64847;45.778;12.802;2023-04-15T01:10:23;3.40;;;3.20;;
76115;SDS011;64847;45.778;12.802;2023-04-15T01:12:48;3.23;;;3.03;;
76115;SDS011;64847;45.778;12.802;2023-04-15T01:15:14;3.43;;;3.23;;
76115;SDS011;64847;45.778;12.802;2023-04-15T01:17:40;3.47;;;3.27;;
76115;SDS011;64847;45.778;12.802;2023-04-15T01:20:06;4.03;;;3.77;;
76115;SDS011;64847;45.778;12.802;2023-04-15T01:22:34;3.90;;;3.70;;
76115;SDS011;64847;45.778;12.802;2023-04-15T01:25:01;3.73;;;3.43;;
76115;SDS011;64847;45.778;12.802;2023-04-15T01:27:32;3.67;;;3.37;;
76115;SDS011;64847;45.778;12.802;2023-04-15T01:29:59;3.57;;;3.27;;
76115;SDS011;64847;45.778;12.802;2023-04-15T01:32:25;4.07;;;3.77;;
76115;SDS011;64847;45.778;12.802;2023-04-15T01:34:51;3.87;;;3.67;;
76115;SDS011;64847;45.778;12.802;2023-04-15T01:37:16;3.83;;;3.63;;
76115;SDS011;64847;45.778;12.802;2023-04-15T01:39:41;3.77;;;3.57;;
76115;SDS011;64847;45.778;12.802;2023-04-15T01:42:07;3.70;;;3.50;;
76115;SDS011;64847;45.778;12.802;2023-04-15T01:44:32;3.63;;;3.43;;
76115;SDS011;64847;45.778;12.802;2023-04-15T01:46:58;3.77;;;3.50;;
76115;SDS011;64847;45.778;12.802;2023-04-15T01:49:23;3.50;;;3.30;;
76115;SDS011;64847;45.778;12.802;2023-04-15T01:51:49;3.70;;;3.50;;
76115;SDS011;64847;45.778;12.802;2023-04-15T01:54:14;3.80;;;3.50;;
76115;SDS011;64847;45.778;12.802;2023-04-15T01:56:40;3.17;;;2.97;;
76115;SDS011;64847;45.778;12.802;2023-04-15T01:59:06;3.40;;;3.20;;
76115;SDS011;64847;45.778;12.802;2023-04-15T02:01:31;3.20;;;3.10;;
76115;SDS011;64847;45.778;12.802;2023-04-15T02:03:57;3.37;;;3.17;;
76115;SDS011;64847;45.778;12.802;2023-04-15T02:06:22;3.23;;;3.03;;
76115;SDS011;64847;45.778;12.802;2023-04-15T02:08:48;3.40;;;3.20;;
76115;SDS011;64847;45.778;12.802;2023-04-15T02:11:14;3.20;;;3.00;;
76115;SDS011;64847;45.778;12.802;2023-04-15T02:13:39;3.20;;;3.00;;
76115;SDS011;64847;45.778;12.802;2023-04-15T02:16:13;2.97;;;2.77;;
76115;SDS011;64847;45.778;12.802;2023-04-15T02:18:43;2.80;;;2.70;;
76115;SDS011;64847;45.778;12.802;2023-04-15T02:21:10;3.13;;;2.93;;
76115;SDS011;64847;45.778;12.802;2023-04-15T02:23:35;3.27;;;3.07;;
76115;SDS011;64847;45.778;12.802;2023-04-15T02:26:00;2.93;;;2.70;;
76115;SDS011;64847;45.778;12.802;2023-04-15T02:28:26;3.00;;;2.80;;
76115;SDS011;64847;45.778;12.802;2023-04-15T02:30:52;2.87;;;2.67;;
76115;SDS011;64847;45.778;12.802;2023-04-15T02:33:20;3.40;;;3.20;;
76115;SDS011;64847;45.778;12.802;2023-04-15T02:35:45;3.03;;;2.83;;
76115;SDS011;64847;45.778;12.802;2023-04-15T02:38:11;3.20;;;3.00;;
76115;SDS011;64847;45.778;12.802;2023-04-15T02:40:38;2.77;;;2.60;;
76115;SDS011;64847;45.778;12.802;2023-04-15T02:43:03;3.00;;;2.80;;
76115;SDS011;64847;45.778;12.802;2023-04-15T02:45:30;2.30;;;2.20;;
76115;SDS011;64847;45.778;12.802;2023-04-15T02:47:56;2.90;;;2.70;;
76115;SDS011;64847;45.778;12.802;2023-04-15T02:50:22;2.60;;;2.50;;
76115;SDS011;64847;45.778;12.802;2023-04-15T02:52:48;2.73;;;2.63;;
76115;SDS011;64847;45.778;12.802;2023-04-15T02:55:13;2.70;;;2.60;;
76115;SDS011;64847;45.778;12.802;2023-04-15T02:57:39;2.57;;;2.37;;
76115;SDS011;64847;45.778;12.802;2023-04-15T03:00:05;2.43;;;2.33;;
76115;SDS011;64847;45.778;12.802;2023-04-15T03:02:37;2.17;;;2.07;;
76115;SDS011;64847;45.778;12.802;2023-04-15T03:05:03;2.67;;;2.50;;
76115;SDS011;64847;45.778;12.802;2023-04-15T03:07:30;2.80;;;2.60;;
76115;SDS011;64847;45.778;12.802;2023-04-15T03:09:55;2.63;;;2.47;;
76115;SDS011;64847;45.778;12.802;2023-04-15T03:12:21;2.77;;;2.30;;
76115;SDS011;64847;45.778;12.802;2023-04-15T03:14:46;2.20;;;2.00;;
76115;SDS011;64847;45.778;12.802;2023-04-15T03:17:12;2.17;;;2.07;;
76115;SDS011;64847;45.778;12.802;2023-04-15T03:19:37;2.27;;;2.17;;
76115;SDS011;64847;45.778;12.802;2023-04-15T03:22:02;2.20;;;2.10;;
76115;SDS011;64847;45.778;12.802;2023-04-15T03:24:28;2.27;;;2.07;;
76115;SDS011;64847;45.778;12.802;2023-04-15T03:26:54;2.40;;;2.20;;
76115;SDS011;64847;45.778;12.802;2023-04-15T03:29:20;2.50;;;2.30;;
76115;SDS011;64847;45.778;12.802;2023-04-15T03:31:45;2.40;;;2.03;;
76115;SDS011;64847;45.778;12.802;2023-04-15T03:34:11;2.10;;;2.00;;
76115;SDS011;64847;45.778;12.802;2023-04-15T03:36:36;2.43;;;2.23;;
76115;SDS011;64847;45.778;12.802;2023-04-15T03:39:02;2.17;;;2.07;;
76115;SDS011;64847;45.778;12.802;2023-04-15T03:41:28;2.20;;;2.10;;
76115;SDS011;64847;45.778;12.802;2023-04-15T03:43:53;2.17;;;2.00;;
76115;SDS011;64847;45.778;12.802;2023-04-15T03:46:19;2.20;;;2.00;;
76115;SDS011;64847;45.778;12.802;2023-04-15T03:48:45;1.83;;;1.73;;
76115;SDS011;64847;45.778;12.802;2023-04-15T03:51:11;2.10;;;2.00;;
76115;SDS011;64847;45.778;12.802;2023-04-15T03:53:36;2.33;;;2.17;;
76115;SDS011;64847;45.778;12.802;2023-04-15T03:56:02;2.33;;;1.80;;
76115;SDS011;64847;45.778;12.802;2023-04-15T03:58:27;2.17;;;1.80;;
76115;SDS011;64847;45.778;12.802;2023-04-15T04:00:53;1.83;;;1.73;;
76115;SDS011;64847;45.778;12.802;2023-04-15T04:03:18;1.60;;;1.60;;
76115;SDS011;64847;45.778;12.802;2023-04-15T04:05:44;2.00;;;1.90;;
76115;SDS011;64847;45.778;12.802;2023-04-15T04:08:10;2.30;;;2.10;;
76115;SDS011;64847;45.778;12.802;2023-04-15T04:10:38;1.80;;;1.70;;
76115;SDS011;64847;45.778;12.802;2023-04-15T04:13:03;2.10;;;2.00;;
76115;SDS011;64847;45.778;12.802;2023-04-15T04:15:29;2.40;;;2.20;;
76115;SDS011;64847;45.778;12.802;2023-04-15T04:17:55;2.00;;;1.90;;
76115;SDS011;64847;45.778;12.802;2023-04-15T04:20:20;2.47;;;2.30;;
76115;SDS011;64847;45.778;12.802;2023-04-15T04:22:46;2.17;;;2.00;;
76115;SDS011;64847;45.778;12.802;2023-04-15T04:25:11;2.77;;;2.40;;
76115;SDS011;64847;45.778;12.802;2023-04-15T04:27:36;2.20;;;2.10;;
76115;SDS011;64847;45.778;12.802;2023-04-15T04:30:02;2.33;;;2.23;;
76115;SDS011;64847;45.778;12.802;2023-04-15T04:32:29;2.47;;;2.30;;
76115;SDS011;64847;45.778;12.802;2023-04-15T04:34:54;2.10;;;2.00;;
76115;SDS011;64847;45.778;12.802;2023-04-15T04:37:19;2.53;;;2.43;;
76115;SDS011;64847;45.778;12.802;2023-04-15T04:39:45;2.20;;;2.10;;
76115;SDS011;64847;45.778;12.802;2023-04-15T04:42:10;2.10;;;2.00;;
76115;SDS011;64847;45.778;12.802;2023-04-15T04:44:36;2.10;;;2.00;;
76115;SDS011;64847;45.778;12.802;2023-04-15T04:47:01;2.10;;;2.00;;
76115;SDS011;64847;45.778;12.802;2023-04-15T04:49:26;2.07;;;1.97;;
76115;SDS011;64847;45.778;12.802;2023-04-15T04:51:52;2.00;;;1.90;;
76115;SDS011;64847;45.778;12.802;2023-04-15T04:54:17;2.10;;;1.93;;
76115;SDS011;64847;45.778;12.802;2023-04-15T04:56:43;2.50;;;2.30;;
76115;SDS011;64847;45.778;12.802;2023-04-15T04:59:08;1.93;;;1.87;;
76115;SDS011;64847;45.778;12.802;2023-04-15T05:01:34;1.93;;;1.83;;
76115;SDS011;64847;45.778;12.802;2023-04-15T05:03:59;2.00;;;1.90;;
76115;SDS011;64847;45.778;12.802;2023-04-15T05:06:25;2.20;;;2.10;;
76115;SDS011;64847;45.778;12.802;2023-04-15T05:08:51;1.90;;;1.80;;
76115;SDS011;64847;45.778;12.802;2023-04-15T05:11:17;2.03;;;1.93;;
76115;SDS011;64847;45.778;12.802;2023-04-15T05:13:42;2.10;;;2.00;;
76115;SDS011;64847;45.778;12.802;2023-04-15T05:16:07;2.10;;;2.00;;
76115;SDS011;64847;45.778;12.802;2023-04-15T05:18:33;2.20;;;2.10;;
76115;SDS011;64847;45.778;12.802;2023-04-15T05:20:59;2.60;;;1.90;;
76115;SDS011;64847;45.778;12.802;2023-04-15T05:23:24;2.50;;;2.30;;
76115;SDS011;64847;45.778;12.802;2023-04-15T05:25:50;2.10;;;2.00;;
76115;SDS011;64847;45.778;12.802;2023-04-15T05:28:15;2.23;;;2.13;;
76115;SDS011;64847;45.778;12.802;2023-04-15T05:30:41;3.77;;;2.20;;
76115;SDS011;64847;45.778;12.802;2023-04-15T05:33:06;2.43;;;2.33;;
76115;SDS011;64847;45.778;12.802;2023-04-15T05:35:31;2.20;;;2.10;;
76115;SDS011;64847;45.778;12.802;2023-04-15T05:37:57;2.00;;;1.90;;
76115;SDS011;64847;45.778;12.802;2023-04-15T05:40:22;2.37;;;2.17;;
76115;SDS011;64847;45.778;12.802;2023-04-15T05:42:48;2.60;;;2.40;;
76115;SDS011;64847;45.778;12.802;2023-04-15T05:45:13;2.20;;;2.10;;
76115;SDS011;64847;45.778;12.802;2023-04-15T05:47:39;2.30;;;2.20;;
76115;SDS011;64847;45.778;12.802;2023-04-15T05:50:04;2.27;;;2.07;;
76115;SDS011;64847;45.778;12.802;2023-04-15T05:52:34;2.33;;;2.23;;
76115;SDS011;64847;45.778;12.802;2023-04-15T05:54:59;2.20;;;2.10;;
76115;SDS011;64847;45.778;12.802;2023-04-15T05:57:24;2.27;;;2.17;;
76115;SDS011;64847;45.778;12.802;2023-04-15T05:59:50;2.07;;;1.97;;
76115;SDS011;64847;45.778;12.802;2023-04-15T06:02:16;2.20;;;2.10;;
76115;SDS011;64847;45.778;12.802;2023-04-15T06:04:42;2.43;;;2.23;;
76115;SDS011;64847;45.778;12.802;2023-04-15T06:07:10;1.97;;;1.87;;
76115;SDS011;64847;45.778;12.802;2023-04-15T06:09:36;2.00;;;1.90;;
76115;SDS011;64847;45.778;12.802;2023-04-15T06:12:01;2.30;;;2.10;;
76115;SDS011;64847;45.778;12.802;2023-04-15T06:14:27;1.70;;;1.70;;
76115;SDS011;64847;45.778;12.802;2023-04-15T06:16:52;2.13;;;2.03;;
76115;SDS011;64847;45.778;12.802;2023-04-15T06:19:18;2.13;;;1.93;;
76115;SDS011;64847;45.778;12.802;2023-04-15T06:21:43;1.80;;;1.80;;
76115;SDS011;64847;45.778;12.802;2023-04-15T06:24:09;2.10;;;1.90;;
76115;SDS011;64847;45.778;12.802;2023-04-15T06:26:34;1.90;;;1.80;;
76115;SDS011;64847;45.778;12.802;2023-04-15T06:29:00;1.60;;;1.50;;
76115;SDS011;64847;45.778;12.802;2023-04-15T06:31:25;2.03;;;1.90;;
76115;SDS011;64847;45.778;12.802;2023-04-15T06:33:50;1.70;;;1.60;;
76115;SDS011;64847;45.778;12.802;2023-04-15T06:36:16;1.80;;;1.70;;
76115;SDS011;64847;45.778;12.802;2023-04-15T06:38:42;1.70;;;1.60;;
76115;SDS011;64847;45.778;12.802;2023-04-15T06:41:07;1.80;;;1.70;;
76115;SDS011;64847;45.778;12.802;2023-04-15T06:43:33;1.87;;;1.70;;
76115;SDS011;64847;45.778;12.802;2023-04-15T06:45:59;1.63;;;1.60;;
76115;SDS011;64847;45.778;12.802;2023-04-15T06:48:24;1.77;;;1.67;;
76115;SDS011;64847;45.778;12.802;2023-04-15T06:50:49;1.63;;;1.53;;
76115;SDS011;64847;45.778;12.802;2023-04-15T06:53:16;1.80;;;1.50;;
76115;SDS011;64847;45.778;12.802;2023-04-15T06:55:41;1.53;;;1.53;;
76115;SDS011;64847;45.778;12.802;2023-04-15T06:58:06;1.53;;;1.53;;
76115;SDS011;64847;45.778;12.802;2023-04-15T07:00:32;1.63;;;1.40;;
76115;SDS011;64847;45.778;12.802;2023-04-15T07:02:58;1.80;;;1.70;;
76115;SDS011;64847;45.778;12.802;2023-04-15T07:05:27;1.37;;;1.30;;
76115;SDS011;64847;45.778;12.802;2023-04-15T07:07:53;1.40;;;1.30;;
76115;SDS011;64847;45.778;12.802;2023-04-15T07:10:18;1.50;;;1.50;;
76115;SDS011;64847;45.778;12.802;2023-04-15T07:12:44;1.63;;;1.53;;
76115;SDS011;64847;45.778;12.802;2023-04-15T07:15:10;1.40;;;1.30;;
76115;SDS011;64847;45.778;12.802;2023-04-15T07:17:36;1.60;;;1.50;;
76115;SDS011;64847;45.778;12.802;2023-04-15T07:20:01;1.63;;;1.53;;
76115;SDS011;64847;45.778;12.802;2023-04-15T07:22:29;1.50;;;1.40;;
76115;SDS011;64847;45.778;12.802;2023-04-15T07:24:54;1.37;;;1.30;;
76115;SDS011;64847;45.778;12.802;2023-04-15T07:27:19;1.53;;;1.20;;
76115;SDS011;64847;45.778;12.802;2023-04-15T07:29:45;1.30;;;1.30;;
76115;SDS011;64847;45.778;12.802;2023-04-15T07:32:10;1.20;;;1.20;;
76115;SDS011;64847;45.778;12.802;2023-04-15T07:34:36;1.30;;;1.30;;
76115;SDS011;64847;45.778;12.802;2023-04-15T07:37:02;1.40;;;1.30;;
76115;SDS011;64847;45.778;12.802;2023-04-15T07:39:27;1.30;;;1.30;;
76115;SDS011;64847;45.778;12.802;2023-04-15T07:41:53;1.40;;;1.33;;
76115;SDS011;64847;45.778;12.802;2023-04-15T07:44:19;1.40;;;1.30;;
76115;SDS011;64847;45.778;12.802;2023-04-15T07:46:44;1.30;;;1.30;;
76115;SDS011;64847;45.778;12.802;2023-04-15T07:49:10;1.37;;;1.30;;
76115;SDS011;64847;45.778;12.802;2023-04-15T07:51:36;1.50;;;1.50;;
76115;SDS011;64847;45.778;12.802;2023-04-15T07:54:02;1.13;;;1.13;;
76115;SDS011;64847;45.778;12.802;2023-04-15T07:56:28;1.23;;;1.23;;
76115;SDS011;64847;45.778;12.802;2023-04-15T07:58:53;1.20;;;1.20;;
76115;SDS011;64847;45.778;12.802;2023-04-15T08:01:20;1.27;;;1.20;;
76115;SDS011;64847;45.778;12.802;2023-04-15T08:03:45;1.27;;;1.13;;
76115;SDS011;64847;45.778;12.802;2023-04-15T08:06:11;1.20;;;1.20;;
76115;SDS011;64847;45.778;12.802;2023-04-15T08:08:44;1.47;;;1.37;;
76115;SDS011;64847;45.778;12.802;2023-04-15T08:11:09;1.17;;;1.13;;
76115;SDS011;64847;45.778;12.802;2023-04-15T08:13:34;1.40;;;1.30;;
76115;SDS011;64847;45.778;12.802;2023-04-15T08:16:15;1.30;;;1.20;;
76115;SDS011;64847;45.778;12.802;2023-04-15T08:18:43;1.20;;;1.20;;
76115;SDS011;64847;45.778;12.802;2023-04-15T08:21:09;1.90;;;1.30;;
76115;SDS011;64847;45.778;12.802;2023-04-15T08:23:35;1.30;;;1.20;;
76115;SDS011;64847;45.778;12.802;2023-04-15T08:26:00;1.10;;;1.10;;
76115;SDS011;64847;45.778;12.802;2023-04-15T08:28:26;1.10;;;1.10;;
76115;SDS011;64847;45.778;12.802;2023-04-15T08:30:52;1.47;;;1.30;;
76115;SDS011;64847;45.778;12.802;2023-04-15T08:33:23;1.10;;;1.10;;
76115;SDS011;64847;45.778;12.802;2023-04-15T08:35:53;1.37;;;1.13;;
76115;SDS011;64847;45.778;12.802;2023-04-15T08:38:18;1.30;;;1.20;;
76115;SDS011;64847;45.778;12.802;2023-04-15T08:40:44;0.90;;;0.90;;
76115;SDS011;64847;45.778;12.802;2023-04-15T08:43:11;1.10;;;1.10;;
76115;SDS011;64847;45.778;12.802;2023-04-15T08:45:39;1.23;;;1.23;;
76115;SDS011;64847;45.778;12.802;2023-04-15T08:48:05;1.93;;;1.30;;
76115;SDS011;64847;45.778;12.802;2023-04-15T08:50:32;1.30;;;1.20;;
76115;SDS011;64847;45.778;12.802;2023-04-15T08:52:58;1.00;;;1.00;;
76115;SDS011;64847;45.778;12.802;2023-04-15T08:55:25;1.20;;;1.10;;
76115;SDS011;64847;45.778;12.802;2023-04-15T08:57:54;1.20;;;1.10;;
76115;SDS011;64847;45.778;12.802;2023-04-15T09:00:20;1.40;;;1.30;;
76115;SDS011;64847;45.778;12.802;2023-04-15T09:02:47;1.40;;;1.30;;
76115;SDS011;64847;45.778;12.802;2023-04-15T09:05:13;1.43;;;1.20;;
76115;SDS011;64847;45.778;12.802;2023-04-15T09:07:38;1.27;;;1.17;;
76115;SDS011;64847;45.778;12.802;2023-04-15T09:10:03;2.10;;;1.30;;
76115;SDS011;64847;45.778;12.802;2023-04-15T09:12:29;1.53;;;1.30;;
76115;SDS011;64847;45.778;12.802;2023-04-15T09:14:56;1.40;;;1.30;;
76115;SDS011;64847;45.778;12.802;2023-04-15T09:17:21;2.13;;;1.50;;
76115;SDS011;64847;45.778;12.802;2023-04-15T09:19:48;1.40;;;1.30;;
76115;SDS011;64847;45.778;12.802;2023-04-15T09:22:14;1.30;;;1.20;;
76115;SDS011;64847;45.778;12.802;2023-04-15T09:24:39;1.20;;;1.10;;
76115;SDS011;64847;45.778;12.802;2023-04-15T09:27:06;1.50;;;1.40;;
76115;SDS011;64847;45.778;12.802;2023-04-15T09:29:31;1.17;;;1.10;;
76115;SDS011;64847;45.778;12.802;2023-04-15T09:32:18;1.35;;;1.25;;
76115;SDS011;64847;45.778;12.802;2023-04-15T09:34:44;1.10;;;1.10;;
76115;SDS011;64847;45.778;12.802;2023-04-15T09:37:10;1.20;;;1.10;;
76115;SDS011;64847;45.778;12.802;2023-04-15T09:39:50;1.45;;;1.30;;
76115;SDS011;64847;45.778;12.802;2023-04-15T09:42:16;1.10;;;1.10;;
76115;SDS011;64847;45.778;12.802;2023-04-15T09:44:48;1.50;;;1.23;;
76115;SDS011;64847;45.778;12.802;2023-04-15T09:47:29;1.33;;;1.25;;
76115;SDS011;64847;45.778;12.802;2023-04-15T09:49:56;1.30;;;1.20;;
76115;SDS011;64847;45.778;12.802;2023-04-15T09:52:23;1.20;;;1.20;;
76115;SDS011;64847;45.778;12.802;2023-04-15T09:54:49;1.40;;;1.30;;
76115;SDS011;64847;45.778;12.802;2023-04-15T09:57:17;1.35;;;1.25;;
76115;SDS011;64847;45.778;12.802;2023-04-15T09:59:42;1.95;;;1.55;;
76115;SDS011;64847;45.778;12.802;2023-04-15T10:02:08;1.48;;;1.30;;
76115;SDS011;64847;45.778;12.802;2023-04-15T10:04:34;1.95;;;1.30;;
76115;SDS011;64847;45.778;12.802;2023-04-15T10:07:02;1.60;;;1.40;;
76115;SDS011;64847;45.778;12.802;2023-04-15T10:09:29;1.30;;;1.20;;
76115;SDS011;64847;45.778;12.802;2023-04-15T10:11:54;1.75;;;1.38;;
76115;SDS011;64847;45.778;12.802;2023-04-15T10:14:20;1.83;;;1.20;;
76115;SDS011;64847;45.778;12.802;2023-04-15T10:16:45;1.30;;;1.20;;
76115;SDS011;64847;45.778;12.802;2023-04-15T10:19:12;2.15;;;1.38;;
76115;SDS011;64847;45.778;12.802;2023-04-15T10:21:40;1.30;;;1.20;;
76115;SDS011;64847;45.778;12.802;2023-04-15T10:24:05;1.35;;;1.20;;
76115;SDS011;64847;45.778;12.802;2023-04-15T10:26:32;2.03;;;1.40;;
76115;SDS011;64847;45.778;12.802;2023-04-15T10:28:58;1.52;;;1.33;;
76115;SDS011;64847;45.778;12.802;2023-04-15T10:31:25;1.30;;;1.20;;
76115;SDS011;64847;45.778;12.802;2023-04-15T10:33:50;1.63;;;1.23;;
76115;SDS011;64847;45.778;12.802;2023-04-15T10:36:16;1.58;;;1.35;;
76115;SDS011;64847;45.778;12.802;2023-04-15T10:38:43;1.42;;;1.30;;
76115;SDS011;64847;45.778;12.802;2023-04-15T10:43:39;1.40;;;1.30;;
76115;SDS011;64847;45.778;12.802;2023-04-15T10:46:09;1.55;;;1.45;;
76115;SDS011;64847;45.778;12.802;2023-04-15T10:48:34;1.40;;;1.30;;
76115;SDS011;64847;45.778;12.802;2023-04-15T10:51:00;1.83;;;1.50;;
76115;SDS011;64847;45.778;12.802;2023-04-15T10:53:29;1.88;;;1.50;;
76115;SDS011;64847;45.778;12.802;2023-04-15T10:55:56;1.58;;;1.40;;
76115;SDS011;64847;45.778;12.802;2023-04-15T10:58:22;1.70;;;1.60;;
76115;SDS011;64847;45.778;12.802;2023-04-15T11:00:49;3.05;;;1.70;;
76115;SDS011;64847;45.778;12.802;2023-04-15T11:03:37;2.00;;;1.52;;
76115;SDS011;64847;45.778;12.802;2023-04-15T11:06:04;2.80;;;1.40;;
76115;SDS011;64847;45.778;12.802;2023-04-15T11:09:14;1.55;;;1.40;;
76115;SDS011;64847;45.778;12.802;2023-04-15T11:14:32;2.65;;;1.70;;
76115;SDS011;64847;45.778;12.802;2023-04-15T11:16:59;2.03;;;1.48;;
76115;SDS011;64847;45.778;12.802;2023-04-15T11:19:25;2.83;;;1.73;;
76115;SDS011;64847;45.778;12.802;2023-04-15T11:21:51;1.60;;;1.48;;
76115;SDS011;64847;45.778;12.802;2023-04-15T11:24:26;1.60;;;1.50;;
76115;SDS011;64847;45.778;12.802;2023-04-15T11:26:56;1.40;;;1.30;;
76115;SDS011;64847;45.778;12.802;2023-04-15T11:29:27;2.08;;;1.67;;
76115;SDS011;64847;45.778;12.802;2023-04-15T11:32:00;1.70;;;1.50;;
76115;SDS011;64847;45.778;12.802;2023-04-15T11:34:28;1.40;;;1.30;;
76115;SDS011;64847;45.778;12.802;2023-04-15T11:36:55;2.05;;;1.40;;
76115;SDS011;64847;45.778;12.802;2023-04-15T11:39:21;2.33;;;1.77;;
76115;SDS011;64847;45.778;12.802;2023-04-15T11:41:46;1.40;;;1.30;;
76115;SDS011;64847;45.778;12.802;2023-04-15T11:44:16;2.42;;;1.52;;
76115;SDS011;64847;45.778;12.802;2023-04-15T11:46:42;1.95;;;1.38;;
76115;SDS011;64847;45.778;12.802;2023-04-15T11:49:07;2.65;;;1.67;;
76115;SDS011;64847;45.778;12.802;2023-04-15T11:51:33;1.52;;;1.35;;
76115;SDS011;64847;45.778;12.802;2023-04-15T11:53:59;2.08;;;1.70;;
76115;SDS011;64847;45.778;12.802;2023-04-15T11:56:25;1.95;;;1.70;;
76115;SDS011;64847;45.778;12.802;2023-04-15T11:58:56;2.22;;;1.60;;
76115;SDS011;64847;45.778;12.802;2023-04-15T12:03:57;2.63;;;1.55;;
76115;SDS011;64847;45.778;12.802;2023-04-15T12:06:28;2.30;;;1.58;;
76115;SDS011;64847;45.778;12.802;2023-04-15T12:13:55;2.30;;;1.50;;
76115;SDS011;64847;45.778;12.802;2023-04-15T12:16:22;2.80;;;1.67;;
76115;SDS011;64847;45.778;12.802;2023-04-15T12:18:52;2.40;;;1.55;;
76115;SDS011;64847;45.778;12.802;2023-04-15T12:21:20;3.05;;;1.60;;
76115;SDS011;64847;45.778;12.802;2023-04-15T12:23:47;3.22;;;1.90;;
76115;SDS011;64847;45.778;12.802;2023-04-15T12:26:14;3.40;;;1.52;;
76115;SDS011;64847;45.778;12.802;2023-04-15T12:28:40;3.00;;;1.70;;
76115;SDS011;64847;45.778;12.802;2023-04-15T12:31:09;4.63;;;1.60;;
76115;SDS011;64847;45.778;12.802;2023-04-15T12:33:35;3.60;;;1.50;;
76115;SDS011;64847;45.778;12.802;2023-04-15T12:36:01;2.45;;;1.60;;
76115;SDS011;64847;45.778;12.802;2023-04-15T12:38:27;3.95;;;1.55;;
76115;SDS011;64847;45.778;12.802;2023-04-15T12:40:52;2.35;;;1.70;;
76115;SDS011;64847;45.778;12.802;2023-04-15T12:43:18;3.13;;;1.55;;
76115;SDS011;64847;45.778;12.802;2023-04-15T12:45:43;1.85;;;1.45;;
76115;SDS011;64847;45.778;12.802;2023-04-15T12:48:09;4.50;;;1.80;;
76115;SDS011;64847;45.778;12.802;2023-04-15T12:50:34;2.65;;;1.60;;
76115;SDS011;64847;45.778;12.802;2023-04-15T12:53:00;2.92;;;1.70;;
76115;SDS011;64847;45.778;12.802;2023-04-15T12:55:25;2.55;;;1.40;;
76115;SDS011;64847;45.778;12.802;2023-04-15T12:57:51;3.50;;;1.33;;
76115;SDS011;64847;45.778;12.802;2023-04-15T13:00:16;5.63;;;2.20;;
76115;SDS011;64847;45.778;12.802;2023-04-15T13:02:45;2.65;;;1.40;;
76115;SDS011;64847;45.778;12.802;2023-04-15T13:05:10;3.75;;;1.95;;
76115;SDS011;64847;45.778;12.802;2023-04-15T13:07:38;2.42;;;1.40;;
76115;SDS011;64847;45.778;12.802;2023-04-15T13:10:04;2.80;;;1.35;;
76115;SDS011;64847;45.778;12.802;2023-04-15T13:12:30;3.05;;;1.60;;
76115;SDS011;64847;45.778;12.802;2023-04-15T13:14:56;2.85;;;1.40;;
76115;SDS011;64847;45.778;12.802;2023-04-15T13:17:22;2.15;;;1.27;;
76115;SDS011;64847;45.778;12.802;2023-04-15T13:19:47;2.50;;;1.50;;
76115;SDS011;64847;45.778;12.802;2023-04-15T13:22:13;2.20;;;1.50;;
76115;SDS011;64847;45.778;12.802;2023-04-15T13:24:39;3.15;;;1.25;;
76115;SDS011;64847;45.778;12.802;2023-04-15T13:27:04;1.73;;;1.35;;
76115;SDS011;64847;45.778;12.802;2023-04-15T13:29:31;2.28;;;1.30;;
76115;SDS011;64847;45.778;12.802;2023-04-15T13:31:56;2.80;;;1.33;;
76115;SDS011;64847;45.778;12.802;2023-04-15T13:34:22;1.63;;;1.10;;
76115;SDS011;64847;45.778;12.802;2023-04-15T13:36:47;1.53;;;1.33;;
76115;SDS011;64847;45.778;12.802;2023-04-15T13:39:13;1.73;;;1.30;;
76115;SDS011;64847;45.778;12.802;2023-04-15T13:41:38;3.47;;;1.60;;
76115;SDS011;64847;45.778;12.802;2023-04-15T13:44:04;1.53;;;1.30;;
76115;SDS011;64847;45.778;12.802;2023-04-15T13:46:30;2.03;;;1.20;;
76115;SDS011;64847;45.778;12.802;2023-04-15T13:48:55;2.00;;;1.27;;
76115;SDS011;64847;45.778;12.802;2023-04-15T13:51:21;2.53;;;1.53;;
76115;SDS011;64847;45.778;12.802;2023-04-15T13:53:46;2.17;;;1.30;;
76115;SDS011;64847;45.778;12.802;2023-04-15T13:56:12;2.60;;;1.23;;
76115;SDS011;64847;45.778;12.802;2023-04-15T13:58:37;1.60;;;1.33;;
76115;SDS011;64847;45.778;12.802;2023-04-15T14:01:03;1.70;;;1.13;;
76115;SDS011;64847;45.778;12.802;2023-04-15T14:03:29;2.47;;;1.27;;
76115;SDS011;64847;45.778;12.802;2023-04-15T14:05:54;3.27;;;1.30;;
76115;SDS011;64847;45.778;12.802;2023-04-15T14:08:21;1.93;;;1.17;;
76115;SDS011;64847;45.778;12.802;2023-04-15T14:10:47;2.07;;;1.20;;
76115;SDS011;64847;45.778;12.802;2023-04-15T14:13:15;1.83;;;1.20;;
76115;SDS011;64847;45.778;12.802;2023-04-15T14:15:41;1.63;;;1.30;;
76115;SDS011;64847;45.778;12.802;2023-04-15T14:18:06;2.50;;;1.27;;
76115;SDS011;64847;45.778;12.802;2023-04-15T14:20:32;2.43;;;1.10;;
76115;SDS011;64847;45.778;12.802;2023-04-15T14:22:57;1.00;;;1.00;;
76115;SDS011;64847;45.778;12.802;2023-04-15T14:25:23;3.73;;;1.30;;
76115;SDS011;64847;45.778;12.802;2023-04-15T14:27:48;3.10;;;1.30;;
76115;SDS011;64847;45.778;12.802;2023-04-15T14:30:14;2.23;;;1.40;;
76115;SDS011;64847;45.778;12.802;2023-04-15T14:32:39;2.90;;;1.40;;
76115;SDS011;64847;45.778;12.802;2023-04-15T14:35:05;1.37;;;1.10;;
76115;SDS011;64847;45.778;12.802;2023-04-15T14:37:31;1.57;;;1.47;;
76115;SDS011;64847;45.778;12.802;2023-04-15T14:39:56;2.30;;;1.30;;
76115;SDS011;64847;45.778;12.802;2023-04-15T14:42:22;2.67;;;1.10;;